createdAt,value
2022-10-03T00:40:56.802Z,10.90
2022-10-03T00:59:53.657Z,10.90
2022-10-03T01:06:06.069Z,11.00
2022-10-03T01:09:20.229Z,11.00
2022-10-03T01:11:58.502Z,11.00
2022-10-03T01:36:07.572Z,10.70
2022-10-03T01:39:19.109Z,10.80
2022-10-03T01:46:22.353Z,10.60
2022-10-03T01:49:25.771Z,10.60
2022-10-03T02:06:13.275Z,10.60
2022-10-03T02:16:09.542Z,10.60
2022-10-03T03:34:46.215Z,11.10
2022-10-03T07:54:00.306Z,13.30
2022-10-03T07:56:53.473Z,13.40
2022-10-03T08:02:46.187Z,13.50
2022-10-03T08:05:23.327Z,13.50
2022-10-03T08:07:52.968Z,13.60
2022-10-03T08:10:43.247Z,13.70
2022-10-03T08:13:25.231Z,13.70
2022-10-03T08:16:35.691Z,13.80
2022-10-03T08:19:11.011Z,13.80
2022-10-03T08:21:46.270Z,13.70
2022-10-03T08:24:14.779Z,13.80
2022-10-03T08:26:51.538Z,13.90
2022-10-03T09:07:17.433Z,14.60
2022-10-03T09:09:48.220Z,14.60
2022-10-03T09:12:24.813Z,14.60
2022-10-03T09:14:54.797Z,14.70
2022-10-03T09:17:24.653Z,14.80
2022-10-03T09:20:11.327Z,14.70
2022-10-03T09:23:10.120Z,14.60
2022-10-03T09:47:30.286Z,14.90
2022-10-03T10:42:19.319Z,15.30
2022-10-03T10:45:19.291Z,15.30
2022-10-03T10:48:05.013Z,15.30
2022-10-03T10:50:54.247Z,15.40
2022-10-03T10:53:49.200Z,15.40
2022-10-03T10:56:35.450Z,15.40
2022-10-03T10:59:40.016Z,15.40
2022-10-03T11:02:20.098Z,15.50
2022-10-03T11:05:18.125Z,15.40
2022-10-03T17:23:20.436Z,13.10
2022-10-03T17:26:05.733Z,13.00
2022-10-03T17:28:49.455Z,12.90
2022-10-03T17:31:23.526Z,12.80
2022-10-03T17:33:53.800Z,12.80
2022-10-03T17:36:40.887Z,12.70
2022-10-03T17:39:21.412Z,12.60
2022-10-03T17:41:52.095Z,12.50
2022-10-03T17:44:38.796Z,12.50
2022-10-03T17:47:05.571Z,12.40
2022-10-03T17:49:42.336Z,12.40
2022-10-03T17:52:17.819Z,12.40
2022-10-03T17:54:47.418Z,12.40
2022-10-03T17:57:26.536Z,12.30
2022-10-03T17:59:56.411Z,12.30
2022-10-03T18:02:34.688Z,12.30
2022-10-03T18:05:17.428Z,12.20
2022-10-03T18:07:45.090Z,12.10
2022-10-03T18:10:18.958Z,12.10
2022-10-03T18:12:48.178Z,12.10
2022-10-03T18:15:37.702Z,12.10
2022-10-03T18:18:20.200Z,12.20
2022-10-03T18:20:51.693Z,12.10
2022-10-03T18:23:43.111Z,12.10
2022-10-03T18:26:30.102Z,12.10
2022-10-03T18:29:03.192Z,12.20
2022-10-03T18:31:34.917Z,12.20
2022-10-03T18:34:04.240Z,12.20
2022-10-03T18:36:35.079Z,12.20
2022-10-03T18:39:11.771Z,12.20
2022-10-03T18:41:45.135Z,12.20
2022-10-03T18:44:20.295Z,12.20
2022-10-03T18:46:51.099Z,12.20
2022-10-03T18:49:33.401Z,12.20
2022-10-03T18:52:26.953Z,12.20
2022-10-03T18:55:05.097Z,12.10
2022-10-03T18:57:35.583Z,12.10
2022-10-03T19:00:09.190Z,12.10
2022-10-03T19:02:45.798Z,12.00
2022-10-03T19:05:15.743Z,12.00
2022-10-03T19:07:46.413Z,11.90
2022-10-03T19:10:17.046Z,11.90
2022-10-03T19:12:47.781Z,11.80
2022-10-03T19:15:27.554Z,11.80
2022-10-03T19:18:21.516Z,11.70
2022-10-03T19:20:50.912Z,11.70
2022-10-03T19:23:26.179Z,11.70
2022-10-03T19:25:59.098Z,11.70
2022-10-03T19:28:29.689Z,11.60
2022-10-03T19:31:02.760Z,11.60
2022-10-03T19:33:30.853Z,11.60
2022-10-03T19:36:00.764Z,11.60
2022-10-03T19:38:33.738Z,11.50
2022-10-03T19:41:13.733Z,11.50
2022-10-03T19:43:42.500Z,11.50
2022-10-03T19:46:09.388Z,11.50
2022-10-03T19:48:39.860Z,11.50
2022-10-03T19:51:25.405Z,11.40
2022-10-03T19:53:57.510Z,11.40
2022-10-03T19:56:26.218Z,11.40
2022-10-03T19:59:07.333Z,11.40
2022-10-03T20:01:42.843Z,11.40
2022-10-03T20:04:10.379Z,11.40
2022-10-03T20:06:41.635Z,11.40
2022-10-03T20:09:18.957Z,11.40
2022-10-03T20:11:48.067Z,11.40
2022-10-03T20:14:26.814Z,11.30
2022-10-03T20:17:02.777Z,11.30
2022-10-03T20:19:36.298Z,11.30
2022-10-03T20:22:04.678Z,11.30
2022-10-03T20:24:36.912Z,11.30
2022-10-03T20:27:22.673Z,11.20
2022-10-03T20:30:08.975Z,11.20
2022-10-03T20:32:38.748Z,11.20
2022-10-03T20:35:06.464Z,11.20
2022-10-03T20:37:36.943Z,11.20
2022-10-03T20:40:29.827Z,11.10
2022-10-03T20:43:08.971Z,11.10
2022-10-03T20:45:37.486Z,11.20
2022-10-03T20:48:10.221Z,11.10
2022-10-03T20:50:37.404Z,11.20
2022-10-03T20:53:10.148Z,11.10
2022-10-03T20:55:44.311Z,11.10
2022-10-03T20:58:18.158Z,11.10
2022-10-03T21:00:48.401Z,11.10
2022-10-03T21:03:21.881Z,11.10
2022-10-03T21:05:54.261Z,11.00
2022-10-03T21:08:21.686Z,11.10
2022-10-03T21:11:11.725Z,11.00
2022-10-03T21:13:50.125Z,11.00
2022-10-03T21:16:20.017Z,11.00
2022-10-03T21:18:48.533Z,11.10
2022-10-03T21:21:24.259Z,11.00
2022-10-03T21:24:10.548Z,11.00
2022-10-03T21:26:41.309Z,10.90
2022-10-03T21:29:38.768Z,11.00
2022-10-03T21:32:24.974Z,11.00
2022-10-03T21:34:55.398Z,11.00
2022-10-03T21:37:34.638Z,11.00
2022-10-03T21:40:20.025Z,11.00
2022-10-03T21:43:08.233Z,10.90
2022-10-03T21:45:47.267Z,11.00
2022-10-03T21:48:25.149Z,10.90
2022-10-03T21:50:58.738Z,11.00
2022-10-03T21:53:28.661Z,11.00
2022-10-03T21:55:56.383Z,11.00
2022-10-03T21:58:42.408Z,11.00
2022-10-03T22:01:28.448Z,11.00
2022-10-03T22:04:24.633Z,11.00
2022-10-03T22:06:58.250Z,11.00
2022-10-03T22:09:25.811Z,10.90
2022-10-03T22:11:55.421Z,10.90
2022-10-03T22:14:39.305Z,10.90
2022-10-03T22:20:20.083Z,10.80
2022-10-03T22:22:52.328Z,10.90
2022-10-03T22:25:25.538Z,10.80
2022-10-03T22:27:58.610Z,10.80
2022-10-03T22:30:26.536Z,10.80
2022-10-03T22:33:06.324Z,10.80
2022-10-03T22:35:36.758Z,10.70
2022-10-03T22:38:03.756Z,10.70
2022-10-03T22:40:31.106Z,10.60
2022-10-03T22:43:03.132Z,10.60
2022-10-03T22:45:31.870Z,10.50
2022-10-03T22:48:00.770Z,10.50
2022-10-03T22:50:30.520Z,10.40
2022-10-03T22:52:59.569Z,10.40
2022-10-03T22:55:27.252Z,10.40
2022-10-03T22:57:55.644Z,10.40
2022-10-03T23:00:27.645Z,10.30
2022-10-03T23:02:56.610Z,10.30
2022-10-03T23:05:29.770Z,10.20
2022-10-03T23:08:06.488Z,10.10
2022-10-03T23:10:39.726Z,10.10
2022-10-03T23:13:32.282Z,10.00
2022-10-03T23:16:06.348Z,9.90
2022-10-03T23:18:53.353Z,9.90
2022-10-03T23:21:20.671Z,9.80
2022-10-03T23:24:01.279Z,9.80
2022-10-03T23:26:28.128Z,9.80
2022-10-03T23:28:58.508Z,9.80
2022-10-03T23:31:45.291Z,9.70
2022-10-03T23:34:12.679Z,9.70
2022-10-03T23:36:59.087Z,9.60
2022-10-03T23:39:34.313Z,9.50
2022-10-03T23:42:05.303Z,9.40
2022-10-03T23:44:51.748Z,9.40
2022-10-03T23:47:36.638Z,9.40
2022-10-03T23:50:04.524Z,9.40
2022-10-03T23:52:37.077Z,9.40
2022-10-03T23:55:04.950Z,9.30
2022-10-03T23:57:37.927Z,9.30
